• Join FlightAware (Why Join?)
  • Login
  • US Flag 
12:57AM EDT


 

Airport Tracker/Info


-or-


 

Live Flight TrackerFlight Track Log ✈ N442GJ ✈ 01-Aug-2013 ✈ M33 - KIND

Flight Track Log - Related Links

Times and Time Zones

All times are in EDT time to prevent confusion due to time zone crossing. See the N442GJ flight status page for this flight to view local times or setup timezone preferences in your user account.

Time Position Orientation Groundspeed Altitude Reporting Facility
EDT Latitude Longitude Course Direction KTS MPH feet Rate Location/Type
02:34PM 36.3833 -86.4000 360° North 153 176 1,000  Level Nashville TRACON
02:35PM 36.4167 -86.4000 360° North 178 205 2,200 1,320 Climbing Nashville TRACON
02:36PM 36.4642 -86.3911 North 213 245 3,000 1,500 Climbing Memphis Center
02:37PM 36.5286 -86.3878 North 237 273 5,000 1,620 Climbing Memphis Center
02:39PM 36.6733 -86.4169 351° North 258 297 8,000 1,920 Climbing Memphis Center
02:40PM 36.7489 -86.4314 351° North 268 308 10,800 1,740 Climbing Memphis Center
02:41PM 36.8267 -86.3911 23° Northeast 282 325 11,500 780 Climbing Memphis Center
02:42PM 36.9083 -86.3353 29° Northeast 311 358 12,400 900 Climbing Memphis Center
02:43PM 36.9881 -86.2897 25° Northeast 334 384 13,400 1,200 Climbing Memphis Center
02:44PM 37.1183 -86.2064 27° Northeast 355 409 15,500 1,380 Climbing Indianapolis Center
02:45PM 37.2225 -86.1400 27° Northeast 357 411 16,900 1,080 Climbing Indianapolis Center
02:46PM 37.3147 -86.0822 26° Northeast 365 420 17,800 1,080 Climbing Indianapolis Center
02:47PM 37.4072 -86.0264 26° Northeast 367 422 19,200 1,380 Climbing Indianapolis Center
02:49PM 37.5044 -85.9997 12° North 353 406 20,700 1,200 Climbing Indianapolis Center
02:50PM 37.5873 -85.9730 14° North  Level FlightAware Approximate
02:51PM 37.6944 -85.9378 14° North 354 407 23,000  Level Indianapolis Center
02:52PM 37.7994 -85.9033 15° North 380 437 23,000  Level Indianapolis Center
02:53PM 37.9331 -85.8572 15° North 412 474 23,000  Level Indianapolis Center
02:54PM 38.0486 -85.8189 15° North 426 490 23,000  Level Indianapolis Center
02:55PM 38.1658 -85.7792 15° North 434 499 23,000  Level Indianapolis Center
02:56PM 38.2806 -85.7408 15° North 430 495 23,000  Level Indianapolis Center
02:57PM 38.3925 -85.7028 15° North 419 482 23,000 -420 Level Indianapolis Center
02:58PM 38.5042 -85.6653 15° North 417 480 22,200 -1,200 Descending Indianapolis Center
02:59PM 38.6194 -85.6428 North 419 482 20,600 -1,740 Descending Indianapolis Center
03:00PM 38.7389 -85.6631 352° North 404 465 18,700 -1,920 Descending Indianapolis Center
03:01PM 38.8433 -85.6811 352° North 385 443 16,700 -2,100 Descending Indianapolis Center
03:02PM 38.9622 -85.7036 352° North 365 420 14,400 -2,040 Descending Indianapolis Center
03:03PM 39.0589 -85.7197 353° North 355 409 12,600 -1,200 Descending Indianapolis Center
03:04PM 39.1533 -85.7375 352° North 347 399 12,000 -1,020 Descending Indianapolis Center
03:05PM 39.2483 -85.7553 352° North 347 399 10,500 -960 Descending Indianapolis Center
03:06PM 39.3233 -85.7833 344° North 291 335 10,000 -300 Descending Indianapolis Center
03:07PM 39.3900 -85.8589 319° Northwest 267 307 10,000  Level Indianapolis Center
03:08PM 39.4444 -85.9242 317° Northwest 268 308 10,000 -480 Level Indianapolis Center
03:09PM 39.4994 -85.9897 317° Northwest 269 310 9,100 -1,320 Descending Indianapolis Center
03:10PM 39.5494 -86.0481 318° Northwest 253 291 7,300 -1,020 Descending Indianapolis Center
03:11PM 39.5947 -86.1028 317° Northwest 230 265 7,000 -180 Descending Indianapolis Center
03:12PM 39.6358 -86.1519 317° Northwest 213 245 7,000  Level Indianapolis Center
03:13PM 39.7033 -86.1375 North 219 252 7,000 -540 Level Indianapolis Center
03:14PM 39.7542 -86.0931 34° Northeast 224 258 5,900 -1,320 Descending Indianapolis Center
03:15PM 39.8047 -86.0406 39° Northeast 233 268 4,300 -960 Descending Indianapolis Center
03:16PM 39.8481 -86.0822 324° Northwest 211 243 4,000 -240 Descending Indianapolis Center
03:17PM 39.8333 -86.1522 255° West 199 229 3,900 -540 Descending Indianapolis Center
03:18PM 39.8025 -86.1983 229° Southwest 183 211 2,900 -840 Descending Indianapolis Center
03:20PM 39.7731 -86.2350 224° Southwest 162 186 2,200 -720 Descending Indianapolis Center
03:21PM 39.7453 -86.2706 225° Southwest 149 171 1,400 -720 Descending Indianapolis Center
03:22PM 39.7181 -86.3061 225° Southwest 139 160 800 -300 Descending Indianapolis Center
03:23PM 39.7156 -86.3111 237° Southwest 58 67 800  Level Indianapolis Center
03:24PM 39.7169 -86.3114 351° North 23 26 800  Level Indianapolis Center
03:25PM 39.7206 -86.3064 47° Northeast 16 18 800  Level Indianapolis Center
03:26PM 39.7233 -86.3025 47° Northeast 15 17 800  Level Indianapolis Center
03:27PM 39.7267 -86.2978 47° Northeast 15 17 800  Level Indianapolis Center
03:28PM 39.7294 -86.2947 40° Northeast 14 16 800  Level Indianapolis Center
03:29PM 39.7325 -86.2911 42° Northeast 14 16 800  Level Indianapolis Center
03:30PM 39.7353 -86.2872 47° Northeast 15 17 800  Level Indianapolis Center
03:31PM 39.7328 -86.2828 126° Southeast 13 15 800  Level Indianapolis Center
03:32PM 39.7319 -86.2786 105° East 13 15 800  Level Indianapolis Center
03:33PM 39.7361 -86.2756 29° Northeast 14 16 800  Level Indianapolis Center